createdAt,value
2019-04-28T00:01:06.219Z,100
2019-04-28T00:06:07.074Z,100
2019-04-28T00:11:07.033Z,100
2019-04-28T00:16:06.919Z,100
2019-04-28T00:21:07.086Z,100
2019-04-28T00:25:07.448Z,100
2019-04-28T00:30:08.250Z,100
2019-04-28T00:35:06.940Z,100
2019-04-28T00:40:06.961Z,100
2019-04-28T00:45:09.036Z,100
2019-04-28T00:50:07.015Z,100
2019-04-28T00:55:06.654Z,100
2019-04-28T01:00:09.005Z,100
2019-04-28T01:04:08.208Z,100
2019-04-28T01:09:07.187Z,100
2019-04-28T01:14:07.029Z,100
2019-04-28T01:19:06.830Z,100
2019-04-28T01:24:06.680Z,100
2019-04-28T01:29:05.883Z,100
2019-04-28T01:34:05.931Z,100
2019-04-28T01:39:07.003Z,100
2019-04-28T01:43:10.110Z,100
2019-04-28T01:48:06.564Z,100
2019-04-28T01:53:06.489Z,100
2019-04-28T01:58:06.799Z,100
2019-04-28T02:03:06.903Z,100
2019-04-28T02:08:07.191Z,100
2019-04-28T02:13:06.713Z,100
2019-04-28T02:17:06.057Z,100
2019-04-28T02:22:06.310Z,100
2019-04-28T02:27:06.586Z,100
2019-04-28T02:32:06.439Z,100
2019-04-28T02:37:06.901Z,100
2019-04-28T02:42:06.700Z,100
2019-04-28T02:47:06.086Z,100
2019-04-28T02:51:06.631Z,100
2019-04-28T02:57:07.118Z,100
2019-04-28T03:01:25.949Z,100
2019-04-28T03:06:06.752Z,100
2019-04-28T03:11:06.699Z,100
2019-04-28T03:16:06.878Z,100
2019-04-28T03:21:06.459Z,100
2019-04-28T03:26:06.671Z,100
2019-04-28T03:30:07.427Z,100
2019-04-28T03:35:06.678Z,100
2019-04-28T03:40:06.326Z,100
2019-04-28T03:45:11.122Z,100
2019-04-28T03:50:06.656Z,100
2019-04-28T03:55:06.921Z,100
2019-04-28T04:00:10.900Z,100
2019-04-28T04:05:06.422Z,100
2019-04-28T04:09:07.290Z,100
2019-04-28T04:14:06.894Z,100
2019-04-28T04:19:07.080Z,100
2019-04-28T04:24:06.921Z,100
2019-04-28T04:29:07.062Z,100
2019-04-28T04:34:06.715Z,100
2019-04-28T04:39:07.174Z,100
2019-04-28T04:43:06.496Z,100
2019-04-28T04:48:07.056Z,100
2019-04-28T04:53:05.965Z,100
2019-04-28T04:58:06.449Z,100
2019-04-28T05:03:06.756Z,100
2019-04-28T05:08:06.907Z,100
2019-04-28T05:13:06.638Z,100
2019-04-28T05:18:07.039Z,100
2019-04-28T05:22:06.473Z,100
2019-04-28T05:27:06.652Z,100
2019-04-28T05:32:06.278Z,100
2019-04-28T05:37:06.497Z,100
2019-04-28T05:42:06.074Z,100
2019-04-28T05:47:06.494Z,100
2019-04-28T05:52:06.739Z,100
2019-04-28T05:56:07.138Z,100
2019-04-28T06:01:06.508Z,100
2019-04-28T06:06:06.712Z,100
2019-04-28T06:11:06.577Z,100
2019-04-28T06:16:06.629Z,100
2019-04-28T06:21:06.593Z,100
2019-04-28T06:26:06.802Z,100
2019-04-28T06:30:07.995Z,100
2019-04-28T06:35:06.592Z,100
2019-04-28T06:40:06.468Z,100
2019-04-28T06:45:07.218Z,99.25
2019-04-28T06:50:07.255Z,98.29
2019-04-28T06:55:06.355Z,97.74
2019-04-28T06:59:06.723Z,97.34
2019-04-28T07:04:06.295Z,98.92
2019-04-28T07:09:07.143Z,97.12
2019-04-28T07:14:06.580Z,96.54
2019-04-28T07:19:06.476Z,96.21
2019-04-28T07:24:06.782Z,95.97
2019-04-28T07:29:06.054Z,95.74
2019-04-28T07:33:06.694Z,96.73
2019-04-28T07:38:07.201Z,96.47
2019-04-28T07:43:06.718Z,95.7
2019-04-28T07:48:06.833Z,95.47
2019-04-28T07:53:06.739Z,94.85
2019-04-28T07:58:06.025Z,93.85
2019-04-28T08:03:07.029Z,95.85
2019-04-28T08:07:06.422Z,95.86
2019-04-28T08:12:06.678Z,96.34
2019-04-28T08:17:06.896Z,96.6
2019-04-28T08:22:09.962Z,97.38
2019-04-28T08:27:07.046Z,96.92
2019-04-28T08:32:07.025Z,96.29
2019-04-28T08:37:06.237Z,96.31
2019-04-28T08:42:06.767Z,96.65
2019-04-28T08:46:06.560Z,98.23
2019-04-28T08:51:06.831Z,98.26
2019-04-28T08:56:06.658Z,97.74
2019-04-28T09:01:06.054Z,98.19
2019-04-28T09:06:06.589Z,94.96
2019-04-28T09:11:06.249Z,94.54
2019-04-28T09:15:08.032Z,92.48
2019-04-28T09:20:06.356Z,94.41
2019-04-28T09:25:06.525Z,92.13
2019-04-28T09:30:07.378Z,90.04
2019-04-28T09:35:06.224Z,86.08
2019-04-28T09:40:06.600Z,86.55
2019-04-28T09:45:07.796Z,87.32
2019-04-28T09:49:06.356Z,84.83
2019-04-28T09:54:06.862Z,83.17
2019-04-28T09:59:07.003Z,79.34
2019-04-28T10:04:06.516Z,79.59
2019-04-28T10:09:07.015Z,81.05
2019-04-28T10:14:06.642Z,81.23
2019-04-28T10:19:07.173Z,77.16
2019-04-28T10:24:06.175Z,74.19
2019-04-28T10:28:06.560Z,78.66
2019-04-28T10:33:06.596Z,78.03
2019-04-28T10:38:06.706Z,74.87
2019-04-28T10:43:06.638Z,74.5
2019-04-28T10:48:06.624Z,75.82
2019-04-28T10:53:06.564Z,75.32
2019-04-28T10:57:05.947Z,72.14
2019-04-28T11:02:06.997Z,74.62
2019-04-28T11:07:06.584Z,72.42
2019-04-28T11:12:06.947Z,75.62
2019-04-28T11:17:06.735Z,75.48
2019-04-28T11:22:05.964Z,73.38
2019-04-28T11:27:06.449Z,74.84
2019-04-28T11:31:06.688Z,71.89
2019-04-28T11:36:06.891Z,74.6
2019-04-28T11:41:06.198Z,74.61
2019-04-28T11:46:06.310Z,76.05
2019-04-28T11:51:06.552Z,74.46
2019-04-28T11:56:07.110Z,73.14
2019-04-28T12:01:06.733Z,71.98
2019-04-28T12:06:05.993Z,71.34
2019-04-28T12:10:06.746Z,72.83
2019-04-28T12:15:07.264Z,70.74
2019-04-28T12:20:06.811Z,71.37
2019-04-28T12:25:07.099Z,69.94
2019-04-28T12:30:08.377Z,69.12
2019-04-28T12:35:07.191Z,69.45
2019-04-28T12:39:07.452Z,73.44
2019-04-28T12:44:06.766Z,69.91
2019-04-28T12:49:06.882Z,69.59
2019-04-28T12:54:07.134Z,70.85
2019-04-28T12:59:07.182Z,70.7
2019-04-28T13:04:06.707Z,67.38
2019-04-28T13:09:07.316Z,64.71
2019-04-28T13:13:06.713Z,64.35
2019-04-28T13:18:07.616Z,63.71
2019-04-28T13:23:06.814Z,65.39
2019-04-28T13:28:06.058Z,66.68
2019-04-28T13:33:06.380Z,60.76
2019-04-28T13:38:06.645Z,58.52
2019-04-28T13:43:07.696Z,57.83
2019-04-28T13:48:06.048Z,57.24
2019-04-28T13:52:06.543Z,55.42
2019-04-28T13:57:06.644Z,58.19
2019-04-28T14:02:06.594Z,60.14
2019-04-28T14:07:06.453Z,58.62
2019-04-28T14:12:06.125Z,62.19
2019-04-28T14:17:06.876Z,59.36
2019-04-28T14:22:07.129Z,60.69
2019-04-28T14:26:06.616Z,61.02
2019-04-28T14:31:07.153Z,60.53
2019-04-28T14:36:06.419Z,58.73
2019-04-28T14:41:06.234Z,59.16
2019-04-28T14:46:06.881Z,60.43
2019-04-28T14:51:07.173Z,62.02
2019-04-28T14:55:06.676Z,60.51
2019-04-28T15:00:08.815Z,61.75
2019-04-28T15:05:06.175Z,62.27
2019-04-28T15:10:06.384Z,60.07
2019-04-28T15:15:08.666Z,59.21
2019-04-28T15:20:07.277Z,60.96
2019-04-28T15:25:06.791Z,60.84
2019-04-28T15:29:06.128Z,58.73
2019-04-28T15:34:07.023Z,61.3
2019-04-28T15:39:07.465Z,62.33
2019-04-28T15:44:07.388Z,55.12
2019-04-28T15:49:06.412Z,54.95
2019-04-28T15:54:06.675Z,57.27
2019-04-28T15:59:06.222Z,56.28
2019-04-28T16:03:06.898Z,60.02
2019-04-28T16:08:07.893Z,63.31
2019-04-28T16:13:06.379Z,63.68
2019-04-28T16:18:06.596Z,64.64
2019-04-28T16:23:06.554Z,60.39
2019-04-28T16:28:06.594Z,58.94
2019-04-28T16:33:07.555Z,57.7
2019-04-28T16:38:06.677Z,61.33
2019-04-28T16:42:07.873Z,62.22
2019-04-28T16:47:06.270Z,60.9
2019-04-28T16:52:06.819Z,62.72
2019-04-28T16:57:06.694Z,64.86
2019-04-28T17:02:06.707Z,64.68
2019-04-28T17:07:07.644Z,63.43
2019-04-28T17:12:06.444Z,65.8
2019-04-28T17:16:06.783Z,65.05
2019-04-28T17:21:06.030Z,65.35
2019-04-28T17:26:06.647Z,66.64
2019-04-28T17:31:06.780Z,67.42
2019-04-28T17:36:07.797Z,69.33
2019-04-28T17:41:06.332Z,71.52
2019-04-28T17:46:06.608Z,75.88
2019-04-28T17:50:06.292Z,75.18
2019-04-28T17:55:06.484Z,74.2
2019-04-28T18:00:08.245Z,72.72
2019-04-28T18:05:06.762Z,71.76
2019-04-28T18:10:08.140Z,70.32
2019-04-28T18:15:08.300Z,71.5
2019-04-28T18:20:07.519Z,71.4
2019-04-28T18:24:07.846Z,72.95
2019-04-28T18:29:06.561Z,73.45
2019-04-28T18:34:06.910Z,74.86
2019-04-28T18:39:07.482Z,75.55
2019-04-28T18:44:07.403Z,75.16
2019-04-28T18:49:06.881Z,77.32
2019-04-28T18:53:07.280Z,78.35
2019-04-28T18:58:07.456Z,79.3
2019-04-28T19:03:06.589Z,80.86
2019-04-28T19:08:06.616Z,82.1
2019-04-28T19:13:06.460Z,83.36
2019-04-28T19:18:06.094Z,83.08
2019-04-28T19:23:06.634Z,83.51
2019-04-28T19:27:06.880Z,85.64
2019-04-28T19:32:07.764Z,84.1
2019-04-28T19:37:06.024Z,82.99
2019-04-28T19:42:08.078Z,83.08
2019-04-28T19:47:06.020Z,84.04
2019-04-28T19:52:06.572Z,84.61
2019-04-28T19:57:07.291Z,85.54
2019-04-28T20:01:06.079Z,86.29
2019-04-28T20:06:06.613Z,86.92
2019-04-28T20:11:06.923Z,87.04
2019-04-28T20:16:06.513Z,88.51
2019-04-28T20:21:07.478Z,88.62
2019-04-28T20:26:06.757Z,88.4
2019-04-28T20:31:06.983Z,88.75
2019-04-28T20:35:06.409Z,89.04
2019-04-28T20:40:06.805Z,89.38
2019-04-28T20:45:07.507Z,89.46
2019-04-28T20:50:07.190Z,89.29
2019-04-28T20:55:06.509Z,89.54
2019-04-28T21:00:08.469Z,90.05
2019-04-28T21:05:06.774Z,89.76
2019-04-28T21:10:07.276Z,89.53
2019-04-28T21:14:07.711Z,89.57
2019-04-28T21:19:06.693Z,90.15
2019-04-28T21:24:07.206Z,91.02
2019-04-28T21:29:06.115Z,91.67
2019-04-28T21:34:06.563Z,93.23
2019-04-28T21:39:09.176Z,93.08
2019-04-28T21:44:06.135Z,93.22
2019-04-28T21:48:06.528Z,93.64
2019-04-28T21:53:07.023Z,93.81
2019-04-28T21:58:06.902Z,93.43
2019-04-28T22:03:07.225Z,93.15
2019-04-28T22:08:06.418Z,93.23
2019-04-28T22:13:06.286Z,94.12
2019-04-28T22:18:07.610Z,93.05
2019-04-28T22:22:07.038Z,94.39
2019-04-28T22:27:06.769Z,94.61
2019-04-28T22:32:06.487Z,95.82
2019-04-28T22:37:06.677Z,94.5
2019-04-28T22:42:06.310Z,94.81
2019-04-28T22:47:07.101Z,94.78
2019-04-28T22:52:06.305Z,95.03
2019-04-28T22:57:06.467Z,95.71
2019-04-28T23:01:06.335Z,97.38
2019-04-28T23:06:06.447Z,96.99
2019-04-28T23:11:07.453Z,93.98
2019-04-28T23:16:06.645Z,93.42
2019-04-28T23:21:06.867Z,93.7
2019-04-28T23:26:05.993Z,93.85
2019-04-28T23:31:06.803Z,95.22
2019-04-28T23:36:07.873Z,96
2019-04-28T23:40:07.525Z,96.58
2019-04-28T23:45:07.776Z,97.14
2019-04-28T23:50:05.944Z,97.76
2019-04-28T23:55:06.093Z,97.73
